createdAt,value
2022-11-02T00:01:56.868Z,79.65
2022-11-02T00:04:26.076Z,79.39
2022-11-02T00:07:00.303Z,79.72
2022-11-02T00:09:31.335Z,79.36
2022-11-02T00:12:00.524Z,79.33
2022-11-02T00:14:29.593Z,79.42
2022-11-02T00:16:58.911Z,79.20
2022-11-02T00:19:33.190Z,79.06
2022-11-02T00:22:02.431Z,79.19
2022-11-02T00:24:35.923Z,79.26
2022-11-02T00:27:05.112Z,78.91
2022-11-02T00:29:36.277Z,79.03
2022-11-02T00:32:05.874Z,79.02
2022-11-02T00:34:35.294Z,79.30
2022-11-02T00:37:07.003Z,79.01
2022-11-02T00:39:38.313Z,79.70
2022-11-02T00:42:13.072Z,79.59
2022-11-02T00:44:42.399Z,79.75
2022-11-02T00:47:11.706Z,79.92
2022-11-02T00:49:41.375Z,79.68
2022-11-02T00:52:11.468Z,79.47
2022-11-02T00:54:42.664Z,79.27
2022-11-02T00:57:11.907Z,79.00
2022-11-02T00:59:46.585Z,79.69
2022-11-02T01:02:18.842Z,79.47
2022-11-02T01:04:54.186Z,79.43
2022-11-02T01:07:28.435Z,79.82
2022-11-02T01:09:59.639Z,80.05
2022-11-02T01:12:28.870Z,80.16
2022-11-02T01:14:58.023Z,79.56
2022-11-02T01:17:27.460Z,79.08
2022-11-02T01:19:56.607Z,79.36
2022-11-02T01:22:27.323Z,79.62
2022-11-02T01:24:58.700Z,79.62
2022-11-02T01:27:29.072Z,79.75
2022-11-02T01:29:58.846Z,79.66
2022-11-02T01:32:30.586Z,79.94
2022-11-02T01:34:59.670Z,79.66
2022-11-02T01:37:34.244Z,79.59
2022-11-02T01:40:06.121Z,79.71
2022-11-02T01:42:35.268Z,79.84
2022-11-02T01:45:04.470Z,79.89
2022-11-02T01:47:44.863Z,80.21
2022-11-02T01:50:22.728Z,80.18
2022-11-02T01:52:52.123Z,80.52
2022-11-02T01:55:28.858Z,80.73
2022-11-02T01:58:04.891Z,81.02
2022-11-02T02:00:35.267Z,79.93
2022-11-02T02:03:16.676Z,79.96
2022-11-02T02:05:51.562Z,80.11
2022-11-02T02:08:33.772Z,80.61
2022-11-02T02:11:04.809Z,80.46
2022-11-02T02:13:34.199Z,80.29
2022-11-02T02:16:33.501Z,80.58
2022-11-02T02:19:11.667Z,80.77
2022-11-02T02:22:00.731Z,80.90
2022-11-02T02:24:46.680Z,80.85
2022-11-02T02:27:29.018Z,81.29
2022-11-02T02:30:09.284Z,80.80
2022-11-02T02:32:51.405Z,81.16
2022-11-02T02:35:34.015Z,80.45
2022-11-02T02:38:05.405Z,80.15
2022-11-02T02:40:36.987Z,80.18
2022-11-02T02:43:08.899Z,80.19
2022-11-02T02:45:54.963Z,80.58
2022-11-02T02:48:26.719Z,80.66
2022-11-02T02:51:05.915Z,80.24
2022-11-02T02:53:39.314Z,80.48
2022-11-02T02:56:11.352Z,80.45
2022-11-02T02:58:46.487Z,80.94
2022-11-02T03:01:24.331Z,80.86
2022-11-02T03:03:53.702Z,80.90
2022-11-02T03:06:31.881Z,80.65
2022-11-02T03:09:11.663Z,80.22
2022-11-02T03:11:52.884Z,79.43
2022-11-02T03:14:34.824Z,79.63
2022-11-02T03:17:18.015Z,79.30
2022-11-02T03:19:57.065Z,80.29
2022-11-02T03:22:36.231Z,80.56
2022-11-02T03:25:20.769Z,80.67
2022-11-02T03:27:57.232Z,80.78
2022-11-02T03:30:30.284Z,80.81
2022-11-02T03:35:53.300Z,80.71
2022-11-02T03:38:26.781Z,81.68
2022-11-02T03:40:58.654Z,81.94
2022-11-02T03:43:28.805Z,81.99
2022-11-02T03:46:03.271Z,82.22
2022-11-02T03:48:42.265Z,82.46
2022-11-02T03:51:17.203Z,82.00
2022-11-02T03:53:56.711Z,82.24
2022-11-02T03:56:31.547Z,82.03
2022-11-02T03:59:01.059Z,81.50
2022-11-02T04:01:32.737Z,81.59
2022-11-02T04:04:06.205Z,82.13
2022-11-02T04:06:37.280Z,81.51
2022-11-02T04:09:13.224Z,82.20
2022-11-02T04:11:56.291Z,81.98
2022-11-02T04:14:38.483Z,82.15
2022-11-02T04:20:03.011Z,81.65
2022-11-02T04:22:48.900Z,82.27
2022-11-02T04:25:21.252Z,82.14
2022-11-02T04:28:10.403Z,82.10
2022-11-02T04:30:45.689Z,81.84
2022-11-02T04:33:28.668Z,82.14
2022-11-02T04:36:08.016Z,82.44
2022-11-02T04:38:42.667Z,82.27
2022-11-02T04:41:46.911Z,82.52
2022-11-02T04:44:24.928Z,82.18
2022-11-02T04:47:22.645Z,82.40
2022-11-02T04:49:52.730Z,82.70
2022-11-02T04:52:29.722Z,84.02
2022-11-02T04:55:00.408Z,83.86
2022-11-02T04:57:35.039Z,83.01
2022-11-02T05:00:11.944Z,83.76
2022-11-02T05:05:16.870Z,84.29
2022-11-02T05:07:47.942Z,84.06
2022-11-02T05:10:17.413Z,83.85
2022-11-02T05:12:48.398Z,83.79
2022-11-02T05:15:17.935Z,84.65
2022-11-02T05:17:50.514Z,85.12
2022-11-02T05:20:20.636Z,85.08
2022-11-02T05:22:59.621Z,85.44
2022-11-02T05:25:29.127Z,85.47
2022-11-02T05:27:59.055Z,85.67
2022-11-02T05:30:28.791Z,86.10
2022-11-02T05:32:59.277Z,85.36
2022-11-02T05:35:29.703Z,85.65
2022-11-02T05:38:06.886Z,86.18
2022-11-02T05:40:37.601Z,86.32
2022-11-02T05:43:07.536Z,86.18
2022-11-02T05:45:37.998Z,86.14
2022-11-02T05:48:08.449Z,86.10
2022-11-02T05:50:37.589Z,85.90
2022-11-02T05:53:08.928Z,86.26
2022-11-02T05:55:38.106Z,86.15
2022-11-02T05:58:07.311Z,86.03
2022-11-02T06:00:36.640Z,86.62
2022-11-02T06:03:06.197Z,86.96
2022-11-02T06:05:36.096Z,87.05
2022-11-02T06:08:05.329Z,86.18
2022-11-02T06:10:36.785Z,86.30
2022-11-02T06:13:06.650Z,86.28
2022-11-02T06:15:36.520Z,86.28
2022-11-02T06:18:07.502Z,85.99
2022-11-02T06:20:43.001Z,85.40
2022-11-02T06:23:14.048Z,85.32
2022-11-02T06:25:45.201Z,85.06
2022-11-02T06:28:14.734Z,84.54
2022-11-02T06:30:45.004Z,84.53
2022-11-02T06:33:14.588Z,84.36
2022-11-02T06:35:47.789Z,84.50
2022-11-02T06:38:17.286Z,84.04
2022-11-02T06:43:30.350Z,83.97
2022-11-02T06:46:00.225Z,84.45
2022-11-02T06:48:34.629Z,83.99
2022-11-02T06:51:05.836Z,83.36
2022-11-02T06:53:35.534Z,83.11
2022-11-02T06:56:06.877Z,83.32
2022-11-02T06:58:36.072Z,83.36
2022-11-02T07:01:08.585Z,83.21
2022-11-02T07:03:38.615Z,83.46
2022-11-02T07:06:13.932Z,83.32
2022-11-02T07:08:48.806Z,83.47
2022-11-02T07:11:19.917Z,83.58
2022-11-02T07:13:49.567Z,83.24
2022-11-02T07:16:18.600Z,83.04
2022-11-02T07:18:47.888Z,83.14
2022-11-02T07:21:17.108Z,82.79
2022-11-02T07:23:46.296Z,83.14
2022-11-02T07:26:15.445Z,82.98
2022-11-02T07:28:47.562Z,83.03
2022-11-02T07:31:16.709Z,83.84
2022-11-02T07:33:45.779Z,84.32
2022-11-02T07:36:15.452Z,84.50
2022-11-02T07:38:44.691Z,84.06
2022-11-02T07:41:24.095Z,83.50
2022-11-02T07:43:55.483Z,83.58
2022-11-02T07:46:33.561Z,82.92
2022-11-02T07:49:02.944Z,82.91
2022-11-02T07:51:32.053Z,82.47
2022-11-02T07:54:02.386Z,82.37
2022-11-02T07:56:31.435Z,82.24
2022-11-02T07:59:07.658Z,82.16
2022-11-02T08:01:36.929Z,81.50
2022-11-02T08:04:06.534Z,81.12
2022-11-02T08:06:37.588Z,81.00
2022-11-02T08:09:06.797Z,81.14
2022-11-02T08:11:35.897Z,80.68
2022-11-02T08:14:07.207Z,80.59
2022-11-02T08:16:36.435Z,80.72
2022-11-02T08:19:05.599Z,80.85
2022-11-02T08:21:34.953Z,80.18
2022-11-02T08:24:04.133Z,79.58
2022-11-02T08:26:34.289Z,79.67
2022-11-02T08:29:04.099Z,79.67
2022-11-02T08:31:35.269Z,79.26
2022-11-02T08:34:04.462Z,78.80
2022-11-02T08:36:33.656Z,78.91
2022-11-02T08:39:02.770Z,78.40
2022-11-02T08:41:32.069Z,77.75
2022-11-02T08:44:01.488Z,77.91
2022-11-02T08:46:31.890Z,77.94
2022-11-02T08:49:03.458Z,78.18
2022-11-02T08:51:32.703Z,78.02
2022-11-02T08:54:01.880Z,78.58
2022-11-02T08:56:31.298Z,78.40
2022-11-02T08:59:00.413Z,78.59
2022-11-02T09:01:29.740Z,77.92
2022-11-02T09:03:59.036Z,77.58
2022-11-02T09:06:30.569Z,77.46
2022-11-02T09:08:59.724Z,77.77
2022-11-02T09:11:34.455Z,78.13
2022-11-02T09:14:04.268Z,77.70
2022-11-02T09:16:36.341Z,77.97
2022-11-02T09:21:57.136Z,77.98
2022-11-02T09:24:26.473Z,78.14
2022-11-02T09:26:55.645Z,78.26
2022-11-02T09:32:14.053Z,76.75
2022-11-02T09:34:43.152Z,75.92
2022-11-02T09:37:14.237Z,76.09
2022-11-02T09:39:43.442Z,76.64
2022-11-02T09:42:22.571Z,77.05
2022-11-02T09:44:58.697Z,76.51
2022-11-02T09:50:22.826Z,75.39
2022-11-02T09:52:58.616Z,75.53
2022-11-02T09:55:32.320Z,76.01
2022-11-02T09:58:05.865Z,75.85
2022-11-02T10:00:40.189Z,75.77
2022-11-02T10:03:21.487Z,75.54
2022-11-02T10:05:58.639Z,75.19
2022-11-02T10:08:45.067Z,75.26
2022-11-02T10:11:27.613Z,74.78
2022-11-02T10:14:07.468Z,75.00
2022-11-02T10:16:39.824Z,74.60
2022-11-02T10:19:16.379Z,73.99
2022-11-02T10:21:50.004Z,73.60
2022-11-02T10:24:31.559Z,73.17
2022-11-02T10:27:03.324Z,72.78
2022-11-02T10:29:45.109Z,72.72
2022-11-02T10:32:15.611Z,73.06
2022-11-02T10:34:58.728Z,72.30
2022-11-02T10:37:52.399Z,72.34
2022-11-02T10:40:38.411Z,71.75
2022-11-02T10:43:20.598Z,72.79
2022-11-02T10:46:11.129Z,72.53
2022-11-02T10:48:53.131Z,72.46
2022-11-02T10:51:29.388Z,71.27
2022-11-02T10:53:58.951Z,70.41
2022-11-02T10:56:33.823Z,70.86
2022-11-02T10:59:10.992Z,70.90
2022-11-02T11:01:48.189Z,71.08
2022-11-02T11:04:27.612Z,71.11
2022-11-02T11:06:58.296Z,70.80
2022-11-02T11:09:30.425Z,71.13
2022-11-02T11:12:07.511Z,70.95
2022-11-02T11:20:40.040Z,71.07
2022-11-02T11:23:12.040Z,70.83
2022-11-02T11:25:42.850Z,71.11
2022-11-02T11:28:33.029Z,71.23
2022-11-02T11:31:13.386Z,71.09
2022-11-02T11:33:53.206Z,70.96
2022-11-02T11:39:28.012Z,71.78
2022-11-02T11:41:57.329Z,71.66
2022-11-02T11:44:28.517Z,71.19
2022-11-02T11:47:00.207Z,71.08
2022-11-02T11:50:03.027Z,71.01
2022-11-02T11:52:31.164Z,71.71
2022-11-02T11:55:24.700Z,70.83
2022-11-02T11:58:15.347Z,71.10
2022-11-02T12:00:46.644Z,70.78
2022-11-02T12:03:16.351Z,71.02
2022-11-02T12:06:04.339Z,71.38
2022-11-02T12:08:44.610Z,71.28
2022-11-02T12:11:28.758Z,70.31
2022-11-02T12:14:12.116Z,71.05
2022-11-02T12:17:12.055Z,71.54
2022-11-02T12:19:58.439Z,71.55
2022-11-02T12:22:40.231Z,71.76
2022-11-02T12:25:21.783Z,72.02
2022-11-02T12:27:59.849Z,72.17
2022-11-02T12:30:36.100Z,72.52
2022-11-02T12:33:25.754Z,72.66
2022-11-02T12:36:14.399Z,72.47
2022-11-02T12:38:58.714Z,72.74
2022-11-02T12:41:46.461Z,72.65
2022-11-02T12:44:39.397Z,72.04
2022-11-02T12:47:22.730Z,72.25
2022-11-02T12:55:59.414Z,72.58
2022-11-02T12:58:31.469Z,73.61
2022-11-02T13:01:03.238Z,73.56
2022-11-02T13:03:45.006Z,74.04
2022-11-02T13:06:23.748Z,74.35
2022-11-02T13:08:57.062Z,74.30
2022-11-02T13:11:34.107Z,74.88
2022-11-02T13:14:07.019Z,74.52
2022-11-02T13:16:42.446Z,75.62
2022-11-02T13:19:20.196Z,75.46
2022-11-02T13:21:55.028Z,75.71
2022-11-02T13:24:31.769Z,75.27
2022-11-02T13:27:21.787Z,74.62
2022-11-02T13:30:05.275Z,75.24
2022-11-02T13:32:40.481Z,75.65
2022-11-02T13:35:20.534Z,75.76
2022-11-02T13:37:55.568Z,76.28
2022-11-02T13:40:35.912Z,76.89
2022-11-02T13:43:32.775Z,77.36
2022-11-02T13:46:25.524Z,77.09
2022-11-02T13:49:11.203Z,77.21
2022-11-02T13:51:45.737Z,76.70
2022-11-02T13:54:18.514Z,77.00
2022-11-02T13:56:55.721Z,77.25
2022-11-02T13:59:31.549Z,77.78
2022-11-02T14:02:04.814Z,77.89
2022-11-02T14:04:41.264Z,78.70
2022-11-02T14:07:22.334Z,78.25
2022-11-02T14:09:52.401Z,77.36
2022-11-02T14:12:41.743Z,77.86
2022-11-02T14:15:49.361Z,77.60
2022-11-02T14:18:32.043Z,77.79
2022-11-02T14:21:22.234Z,77.71
2022-11-02T14:23:51.451Z,77.09
2022-11-02T14:26:55.404Z,77.07
2022-11-02T14:29:50.981Z,77.20
2022-11-02T14:32:30.544Z,77.07
2022-11-02T14:35:15.615Z,76.66
2022-11-02T14:38:12.126Z,77.12
2022-11-02T14:40:53.783Z,77.35
2022-11-02T14:43:53.496Z,77.31
2022-11-02T14:46:38.257Z,77.18
2022-11-02T14:49:18.054Z,78.01
2022-11-02T14:52:03.690Z,77.46
2022-11-02T14:54:37.266Z,78.06
2022-11-02T14:57:20.614Z,79.03
2022-11-02T14:59:52.642Z,79.00
2022-11-02T15:02:36.075Z,78.42
2022-11-02T15:05:25.332Z,78.59
2022-11-02T15:08:01.687Z,78.46
2022-11-02T15:10:43.683Z,78.49
2022-11-02T15:13:34.979Z,78.40
2022-11-02T15:16:39.029Z,78.64
2022-11-02T15:19:38.498Z,79.04
2022-11-02T15:22:34.491Z,79.26
2022-11-02T15:25:13.726Z,78.82
2022-11-02T15:27:45.585Z,79.04
2022-11-02T15:30:27.979Z,79.58
2022-11-02T15:33:08.411Z,78.65
2022-11-02T15:35:40.460Z,78.92
2022-11-02T15:38:19.176Z,79.29
2022-11-02T15:41:18.066Z,80.15
2022-11-02T15:44:05.239Z,79.66
2022-11-02T15:46:47.471Z,79.54
2022-11-02T15:49:35.921Z,79.32
2022-11-02T15:52:14.392Z,79.87
2022-11-02T15:54:57.566Z,79.89
2022-11-02T15:57:41.380Z,80.50
2022-11-02T16:00:21.275Z,79.17
2022-11-02T16:02:53.166Z,79.05
2022-11-02T16:05:30.097Z,79.44
2022-11-02T16:08:15.885Z,79.63
2022-11-02T16:10:45.438Z,79.69
2022-11-02T16:13:20.237Z,79.63
2022-11-02T16:15:50.802Z,79.82
2022-11-02T16:18:25.651Z,80.04
2022-11-02T16:20:59.179Z,79.08
2022-11-02T16:23:31.049Z,79.06
2022-11-02T16:26:06.044Z,79.68
2022-11-02T16:28:38.959Z,79.06
2022-11-02T16:31:19.802Z,79.38
2022-11-02T16:33:51.860Z,79.74
2022-11-02T16:36:30.699Z,79.68
2022-11-02T16:39:00.374Z,78.89
2022-11-02T16:41:31.668Z,77.98
2022-11-02T16:44:12.573Z,78.35
2022-11-02T16:46:50.813Z,78.83
2022-11-02T16:49:26.790Z,79.01
2022-11-02T16:51:59.038Z,78.44
2022-11-02T16:54:31.733Z,78.78
2022-11-02T16:57:11.675Z,79.49
2022-11-02T16:59:55.358Z,79.59
2022-11-02T17:02:34.324Z,79.92
2022-11-02T17:05:06.407Z,80.12
2022-11-02T17:07:41.045Z,79.75
2022-11-02T17:10:20.786Z,79.95
2022-11-02T17:12:51.697Z,79.39
2022-11-02T17:15:25.898Z,79.44
2022-11-02T17:18:18.695Z,79.56
2022-11-02T17:20:48.276Z,79.25
2022-11-02T17:23:33.311Z,79.39
2022-11-02T17:26:34.699Z,80.13
2022-11-02T17:29:35.861Z,80.24
2022-11-02T17:32:09.089Z,80.00
2022-11-02T17:34:38.470Z,79.85
2022-11-02T17:37:08.553Z,79.88
2022-11-02T17:39:39.041Z,79.95
2022-11-02T17:42:23.569Z,80.46
2022-11-02T17:44:52.840Z,80.33
2022-11-02T17:47:23.903Z,80.14
2022-11-02T17:49:53.210Z,80.59
2022-11-02T17:52:22.550Z,81.15
2022-11-02T17:54:52.038Z,80.64
2022-11-02T17:57:21.245Z,80.43
2022-11-02T17:59:51.938Z,80.67
2022-11-02T18:02:21.829Z,80.81
2022-11-02T18:04:53.245Z,81.06
2022-11-02T18:07:22.457Z,80.26
2022-11-02T18:09:54.236Z,78.92
2022-11-02T18:12:23.604Z,78.61
2022-11-02T18:14:52.640Z,79.25
2022-11-02T18:17:23.012Z,79.58
2022-11-02T18:19:54.660Z,79.99
2022-11-02T18:22:24.002Z,80.61
2022-11-02T18:24:53.076Z,80.73
2022-11-02T18:27:24.958Z,80.72
2022-11-02T18:29:57.502Z,81.14
2022-11-02T18:32:26.753Z,80.97
2022-11-02T18:34:58.112Z,81.06
2022-11-02T18:37:28.345Z,81.26
2022-11-02T18:40:03.077Z,82.05
2022-11-02T18:42:33.386Z,82.16
2022-11-02T18:45:02.773Z,82.19
2022-11-02T18:47:37.224Z,82.34
2022-11-02T18:50:10.023Z,82.66
2022-11-02T18:52:39.901Z,82.68
2022-11-02T18:55:10.788Z,82.17
2022-11-02T18:57:40.043Z,82.65
2022-11-02T19:00:12.081Z,82.01
2022-11-02T19:02:41.629Z,81.76
2022-11-02T19:05:30.561Z,82.84
2022-11-02T19:08:14.600Z,82.54
2022-11-02T19:10:45.679Z,82.56
2022-11-02T19:13:15.094Z,83.06
2022-11-02T19:15:49.286Z,84.07
2022-11-02T19:18:18.610Z,83.34
2022-11-02T19:20:50.278Z,83.97
2022-11-02T19:23:22.207Z,83.91
2022-11-02T19:26:03.071Z,84.16
2022-11-02T19:28:32.485Z,84.42
2022-11-02T19:31:05.622Z,85.17
2022-11-02T19:33:34.860Z,84.90
2022-11-02T19:36:07.006Z,84.86
2022-11-02T19:38:39.062Z,84.50
2022-11-02T19:41:16.753Z,84.97
2022-11-02T19:43:51.468Z,85.18
2022-11-02T19:48:58.572Z,84.34
2022-11-02T19:51:33.638Z,84.16
2022-11-02T19:54:04.374Z,83.89
2022-11-02T19:56:40.239Z,84.63
2022-11-02T19:59:27.534Z,85.56
2022-11-02T20:01:56.742Z,85.17
2022-11-02T20:04:26.029Z,85.14
2022-11-02T20:06:57.929Z,84.40
2022-11-02T20:09:27.206Z,84.85
2022-11-02T20:11:56.534Z,84.88
2022-11-02T20:14:33.905Z,85.05
2022-11-02T20:17:29.710Z,84.72
2022-11-02T20:19:58.178Z,84.49
2022-11-02T20:22:29.276Z,84.53
2022-11-02T20:25:00.174Z,84.39
2022-11-02T20:27:30.070Z,84.25
2022-11-02T20:29:59.337Z,84.15
2022-11-02T20:32:28.610Z,84.48
2022-11-02T20:34:57.779Z,84.84
2022-11-02T20:37:33.968Z,84.53
2022-11-02T20:40:03.463Z,84.55
2022-11-02T20:42:33.344Z,84.32
2022-11-02T20:45:09.181Z,85.00
2022-11-02T20:47:39.045Z,85.57
2022-11-02T20:50:12.866Z,85.94
2022-11-02T20:52:48.615Z,85.77
2022-11-02T20:55:18.062Z,85.70
2022-11-02T20:57:52.754Z,85.25
2022-11-02T21:00:22.596Z,84.92
2022-11-02T21:02:51.824Z,85.61
2022-11-02T21:05:20.926Z,85.75
2022-11-02T21:07:53.117Z,86.21
2022-11-02T21:10:21.951Z,85.59
2022-11-02T21:13:04.250Z,86.02
2022-11-02T21:15:33.776Z,85.79
2022-11-02T21:18:03.608Z,84.85
2022-11-02T21:20:34.752Z,85.14
2022-11-02T21:23:11.588Z,85.37
2022-11-02T21:25:40.730Z,85.19
2022-11-02T21:28:09.836Z,85.36
2022-11-02T21:30:49.513Z,84.60
2022-11-02T21:33:18.653Z,84.73
2022-11-02T21:35:49.801Z,84.76
2022-11-02T21:38:21.084Z,84.75
2022-11-02T21:40:55.627Z,85.12
2022-11-02T21:43:24.813Z,84.93
2022-11-02T21:46:04.114Z,84.83
2022-11-02T21:48:34.903Z,84.15
2022-11-02T21:51:07.021Z,84.14
2022-11-02T21:53:40.892Z,84.06
2022-11-02T21:56:19.125Z,84.10
2022-11-02T21:58:49.260Z,82.50
2022-11-02T22:01:33.617Z,82.50
2022-11-02T22:04:03.361Z,82.72
2022-11-02T22:06:32.722Z,83.01
2022-11-02T22:09:04.021Z,83.87
2022-11-02T22:11:33.177Z,84.10
2022-11-02T22:14:01.043Z,83.81
2022-11-02T22:16:34.263Z,84.09
2022-11-02T22:19:05.279Z,83.84
2022-11-02T22:21:41.945Z,83.51
2022-11-02T22:24:14.031Z,83.53
2022-11-02T22:26:43.645Z,83.87
2022-11-02T22:29:12.919Z,83.97
2022-11-02T22:31:42.578Z,84.09
2022-11-02T22:34:13.481Z,84.23
2022-11-02T22:36:44.512Z,84.10
2022-11-02T22:39:14.607Z,84.22
2022-11-02T22:41:44.981Z,83.87
2022-11-02T22:44:16.203Z,84.38
2022-11-02T22:46:48.569Z,84.03
2022-11-02T22:49:19.079Z,84.10
2022-11-02T22:51:50.156Z,85.04
2022-11-02T22:54:32.044Z,85.42
2022-11-02T22:57:01.353Z,85.18
2022-11-02T22:59:30.627Z,85.59
2022-11-02T23:01:59.970Z,84.86
2022-11-02T23:04:29.360Z,84.85
2022-11-02T23:06:58.865Z,84.83
2022-11-02T23:09:30.064Z,84.24
2022-11-02T23:11:57.268Z,84.14
2022-11-02T23:14:32.290Z,84.90
2022-11-02T23:17:01.744Z,84.11
2022-11-02T23:19:29.606Z,83.99
2022-11-02T23:22:19.175Z,84.50
2022-11-02T23:25:04.784Z,85.30
2022-11-02T23:27:54.967Z,84.56
2022-11-02T23:30:37.439Z,84.95
2022-11-02T23:33:06.924Z,85.09
2022-11-02T23:35:49.094Z,85.04
2022-11-02T23:38:18.153Z,84.73
2022-11-02T23:40:49.104Z,84.52
2022-11-02T23:43:18.327Z,84.44
2022-11-02T23:45:47.611Z,84.87
2022-11-02T23:50:58.727Z,84.57
2022-11-02T23:53:40.434Z,84.92
2022-11-02T23:56:29.218Z,85.21
2022-11-02T23:59:07.885Z,85.48
